sensor_id;sensor_type;location;lat;lon;timestamp;P1;durP1;ratioP1;P2;durP2;ratioP2
29430;SDS011;16404;49.902;10.074;2023-03-12T00:01:39;9.13;;;6.25;;
29430;SDS011;16404;49.902;10.074;2023-03-12T00:04:24;10.38;;;6.40;;
29430;SDS011;16404;49.902;10.074;2023-03-12T00:07:09;11.80;;;6.82;;
29430;SDS011;16404;49.902;10.074;2023-03-12T00:09:54;11.20;;;6.28;;
29430;SDS011;16404;49.902;10.074;2023-03-12T00:12:38;12.18;;;7.47;;
29430;SDS011;16404;49.902;10.074;2023-03-12T00:15:23;14.43;;;8.00;;
29430;SDS011;16404;49.902;10.074;2023-03-12T00:18:07;13.77;;;7.72;;
29430;SDS011;16404;49.902;10.074;2023-03-12T00:20:53;11.93;;;7.38;;
29430;SDS011;16404;49.902;10.074;2023-03-12T00:23:37;16.95;;;8.50;;
29430;SDS011;16404;49.902;10.074;2023-03-12T00:26:22;14.57;;;8.15;;
29430;SDS011;16404;49.902;10.074;2023-03-12T00:29:06;18.67;;;8.75;;
29430;SDS011;16404;49.902;10.074;2023-03-12T00:31:51;14.93;;;8.10;;
29430;SDS011;16404;49.902;10.074;2023-03-12T00:34:36;15.70;;;8.00;;
29430;SDS011;16404;49.902;10.074;2023-03-12T00:37:21;14.93;;;9.00;;
29430;SDS011;16404;49.902;10.074;2023-03-12T00:40:06;13.88;;;8.63;;
29430;SDS011;16404;49.902;10.074;2023-03-12T00:42:52;14.55;;;8.43;;
29430;SDS011;16404;49.902;10.074;2023-03-12T00:45:37;17.92;;;9.73;;
29430;SDS011;16404;49.902;10.074;2023-03-12T00:48:22;20.63;;;11.50;;
29430;SDS011;16404;49.902;10.074;2023-03-12T00:51:06;15.13;;;10.00;;
29430;SDS011;16404;49.902;10.074;2023-03-12T00:53:52;17.08;;;9.80;;
29430;SDS011;16404;49.902;10.074;2023-03-12T00:56:38;17.58;;;9.75;;
29430;SDS011;16404;49.902;10.074;2023-03-12T00:59:23;21.60;;;9.50;;
29430;SDS011;16404;49.902;10.074;2023-03-12T01:02:08;20.38;;;11.27;;
29430;SDS011;16404;49.902;10.074;2023-03-12T01:04:52;20.27;;;10.50;;
29430;SDS011;16404;49.902;10.074;2023-03-12T01:07:37;23.58;;;11.63;;
29430;SDS011;16404;49.902;10.074;2023-03-12T01:10:22;16.65;;;10.82;;
29430;SDS011;16404;49.902;10.074;2023-03-12T01:13:07;25.85;;;13.15;;
29430;SDS011;16404;49.902;10.074;2023-03-12T01:18:36;24.65;;;12.15;;
29430;SDS011;16404;49.902;10.074;2023-03-12T01:24:06;21.48;;;11.55;;
29430;SDS011;16404;49.902;10.074;2023-03-12T01:26:50;20.83;;;11.30;;
29430;SDS011;16404;49.902;10.074;2023-03-12T01:29:35;23.58;;;13.02;;
29430;SDS011;16404;49.902;10.074;2023-03-12T01:32:20;20.10;;;11.77;;
29430;SDS011;16404;49.902;10.074;2023-03-12T01:35:04;21.15;;;11.30;;
29430;SDS011;16404;49.902;10.074;2023-03-12T01:37:49;24.13;;;12.63;;
29430;SDS011;16404;49.902;10.074;2023-03-12T01:40:34;24.98;;;13.40;;
29430;SDS011;16404;49.902;10.074;2023-03-12T01:43:24;34.85;;;13.60;;
29430;SDS011;16404;49.902;10.074;2023-03-12T01:46:17;38.40;;;14.90;;
29430;SDS011;16404;49.902;10.074;2023-03-12T01:49:16;40.97;;;15.95;;
29430;SDS011;16404;49.902;10.074;2023-03-12T01:55:10;39.63;;;15.85;;
29430;SDS011;16404;49.902;10.074;2023-03-12T01:57:59;52.78;;;19.17;;
29430;SDS011;16404;49.902;10.074;2023-03-12T02:00:44;47.47;;;19.65;;
29430;SDS011;16404;49.902;10.074;2023-03-12T02:03:29;52.58;;;18.63;;
29430;SDS011;16404;49.902;10.074;2023-03-12T02:08:59;42.53;;;16.93;;
29430;SDS011;16404;49.902;10.074;2023-03-12T02:11:47;38.90;;;15.70;;
29430;SDS011;16404;49.902;10.074;2023-03-12T02:14:31;34.83;;;14.85;;
29430;SDS011;16404;49.902;10.074;2023-03-12T02:22:54;35.42;;;15.57;;
29430;SDS011;16404;49.902;10.074;2023-03-12T02:25:49;30.42;;;14.07;;
29430;SDS011;16404;49.902;10.074;2023-03-12T02:28:34;34.83;;;13.98;;
29430;SDS011;16404;49.902;10.074;2023-03-12T02:31:27;34.08;;;14.35;;
29430;SDS011;16404;49.902;10.074;2023-03-12T02:34:16;30.33;;;13.23;;
29430;SDS011;16404;49.902;10.074;2023-03-12T02:37:01;27.88;;;13.57;;
29430;SDS011;16404;49.902;10.074;2023-03-12T02:39:49;20.95;;;12.40;;
29430;SDS011;16404;49.902;10.074;2023-03-12T02:42:38;29.23;;;12.50;;
29430;SDS011;16404;49.902;10.074;2023-03-12T02:45:23;28.92;;;12.15;;
29430;SDS011;16404;49.902;10.074;2023-03-12T02:48:09;25.40;;;12.10;;
29430;SDS011;16404;49.902;10.074;2023-03-12T02:50:54;25.10;;;13.65;;
29430;SDS011;16404;49.902;10.074;2023-03-12T02:53:38;21.45;;;11.80;;
29430;SDS011;16404;49.902;10.074;2023-03-12T02:56:23;21.42;;;12.32;;
29430;SDS011;16404;49.902;10.074;2023-03-12T02:59:10;20.23;;;10.90;;
29430;SDS011;16404;49.902;10.074;2023-03-12T03:01:59;19.83;;;11.30;;
29430;SDS011;16404;49.902;10.074;2023-03-12T03:04:44;20.23;;;11.00;;
29430;SDS011;16404;49.902;10.074;2023-03-12T03:07:28;23.88;;;11.05;;
29430;SDS011;16404;49.902;10.074;2023-03-12T03:10:14;18.92;;;10.52;;
29430;SDS011;16404;49.902;10.074;2023-03-12T03:13:00;17.75;;;11.05;;
29430;SDS011;16404;49.902;10.074;2023-03-12T03:15:44;22.42;;;10.85;;
29430;SDS011;16404;49.902;10.074;2023-03-12T03:18:29;22.92;;;10.50;;
29430;SDS011;16404;49.902;10.074;2023-03-12T03:24:00;19.13;;;10.30;;
29430;SDS011;16404;49.902;10.074;2023-03-12T03:26:45;16.90;;;9.60;;
29430;SDS011;16404;49.902;10.074;2023-03-12T03:29:30;19.77;;;11.88;;
29430;SDS011;16404;49.902;10.074;2023-03-12T03:32:14;20.30;;;11.20;;
29430;SDS011;16404;49.902;10.074;2023-03-12T03:34:59;21.65;;;10.65;;
29430;SDS011;16404;49.902;10.074;2023-03-12T03:37:44;18.23;;;10.93;;
29430;SDS011;16404;49.902;10.074;2023-03-12T03:40:28;18.05;;;10.60;;
29430;SDS011;16404;49.902;10.074;2023-03-12T03:43:13;20.33;;;9.90;;
29430;SDS011;16404;49.902;10.074;2023-03-12T03:45:59;18.70;;;11.05;;
29430;SDS011;16404;49.902;10.074;2023-03-12T03:48:45;22.95;;;10.98;;
29430;SDS011;16404;49.902;10.074;2023-03-12T03:51:31;16.92;;;9.88;;
29430;SDS011;16404;49.902;10.074;2023-03-12T03:54:21;18.10;;;9.88;;
29430;SDS011;16404;49.902;10.074;2023-03-12T03:57:05;17.48;;;9.75;;
29430;SDS011;16404;49.902;10.074;2023-03-12T03:59:50;25.40;;;10.77;;
29430;SDS011;16404;49.902;10.074;2023-03-12T04:02:35;16.02;;;9.68;;
29430;SDS011;16404;49.902;10.074;2023-03-12T04:05:20;18.60;;;10.65;;
29430;SDS011;16404;49.902;10.074;2023-03-12T04:08:06;16.50;;;9.90;;
29430;SDS011;16404;49.902;10.074;2023-03-12T04:10:51;17.80;;;9.82;;
29430;SDS011;16404;49.902;10.074;2023-03-12T04:13:36;18.08;;;10.13;;
29430;SDS011;16404;49.902;10.074;2023-03-12T04:16:21;20.30;;;11.18;;
29430;SDS011;16404;49.902;10.074;2023-03-12T04:19:09;20.63;;;11.07;;
29430;SDS011;16404;49.902;10.074;2023-03-12T04:21:54;17.08;;;10.52;;
29430;SDS011;16404;49.902;10.074;2023-03-12T04:24:38;16.85;;;10.18;;
29430;SDS011;16404;49.902;10.074;2023-03-12T04:27:23;17.13;;;9.48;;
29430;SDS011;16404;49.902;10.074;2023-03-12T04:30:08;16.70;;;9.82;;
29430;SDS011;16404;49.902;10.074;2023-03-12T04:32:55;15.65;;;9.68;;
29430;SDS011;16404;49.902;10.074;2023-03-12T04:35:45;16.08;;;9.52;;
29430;SDS011;16404;49.902;10.074;2023-03-12T04:38:35;18.23;;;10.38;;
29430;SDS011;16404;49.902;10.074;2023-03-12T04:41:20;21.27;;;11.70;;
29430;SDS011;16404;49.902;10.074;2023-03-12T04:44:17;20.25;;;11.13;;
29430;SDS011;16404;49.902;10.074;2023-03-12T04:47:02;21.50;;;11.07;;
29430;SDS011;16404;49.902;10.074;2023-03-12T04:52:31;16.83;;;10.40;;
29430;SDS011;16404;49.902;10.074;2023-03-12T04:55:16;16.85;;;9.45;;
29430;SDS011;16404;49.902;10.074;2023-03-12T04:58:00;14.13;;;10.00;;
29430;SDS011;16404;49.902;10.074;2023-03-12T05:00:47;15.98;;;10.20;;
29430;SDS011;16404;49.902;10.074;2023-03-12T05:03:32;17.27;;;9.85;;
29430;SDS011;16404;49.902;10.074;2023-03-12T05:06:18;16.88;;;10.23;;
29430;SDS011;16404;49.902;10.074;2023-03-12T05:09:03;18.83;;;10.60;;
29430;SDS011;16404;49.902;10.074;2023-03-12T05:11:48;17.75;;;10.38;;
29430;SDS011;16404;49.902;10.074;2023-03-12T05:14:36;18.88;;;10.18;;
29430;SDS011;16404;49.902;10.074;2023-03-12T05:17:23;17.25;;;10.02;;
29430;SDS011;16404;49.902;10.074;2023-03-12T05:20:08;15.15;;;9.35;;
29430;SDS011;16404;49.902;10.074;2023-03-12T05:22:54;18.15;;;9.48;;
29430;SDS011;16404;49.902;10.074;2023-03-12T05:25:39;18.70;;;10.00;;
29430;SDS011;16404;49.902;10.074;2023-03-12T05:28:24;15.73;;;9.25;;
29430;SDS011;16404;49.902;10.074;2023-03-12T05:31:13;19.92;;;9.50;;
29430;SDS011;16404;49.902;10.074;2023-03-12T05:33:58;16.45;;;8.65;;
29430;SDS011;16404;49.902;10.074;2023-03-12T05:36:43;18.90;;;9.25;;
29430;SDS011;16404;49.902;10.074;2023-03-12T05:39:30;16.70;;;9.65;;
29430;SDS011;16404;49.902;10.074;2023-03-12T05:42:20;15.23;;;8.43;;
29430;SDS011;16404;49.902;10.074;2023-03-12T05:45:07;14.27;;;8.32;;
29430;SDS011;16404;49.902;10.074;2023-03-12T05:47:54;14.88;;;9.35;;
29430;SDS011;16404;49.902;10.074;2023-03-12T05:50:38;13.77;;;8.73;;
29430;SDS011;16404;49.902;10.074;2023-03-12T05:53:24;15.55;;;9.10;;
29430;SDS011;16404;49.902;10.074;2023-03-12T05:56:10;15.80;;;9.30;;
29430;SDS011;16404;49.902;10.074;2023-03-12T05:58:56;15.02;;;8.75;;
29430;SDS011;16404;49.902;10.074;2023-03-12T06:01:42;15.02;;;9.10;;
29430;SDS011;16404;49.902;10.074;2023-03-12T06:04:26;14.60;;;9.23;;
29430;SDS011;16404;49.902;10.074;2023-03-12T06:07:11;20.42;;;9.25;;
29430;SDS011;16404;49.902;10.074;2023-03-12T06:09:57;13.55;;;9.48;;
29430;SDS011;16404;49.902;10.074;2023-03-12T06:12:42;23.08;;;10.75;;
29430;SDS011;16404;49.902;10.074;2023-03-12T06:15:27;22.85;;;11.23;;
29430;SDS011;16404;49.902;10.074;2023-03-12T06:18:11;15.27;;;10.10;;
29430;SDS011;16404;49.902;10.074;2023-03-12T06:21:06;19.75;;;11.75;;
29430;SDS011;16404;49.902;10.074;2023-03-12T06:23:56;24.20;;;10.90;;
29430;SDS011;16404;49.902;10.074;2023-03-12T06:26:48;18.60;;;10.77;;
29430;SDS011;16404;49.902;10.074;2023-03-12T06:29:32;15.82;;;9.90;;
29430;SDS011;16404;49.902;10.074;2023-03-12T06:32:17;18.45;;;10.05;;
29430;SDS011;16404;49.902;10.074;2023-03-12T06:35:02;19.02;;;9.15;;
29430;SDS011;16404;49.902;10.074;2023-03-12T06:37:48;16.77;;;9.02;;
29430;SDS011;16404;49.902;10.074;2023-03-12T06:40:33;21.02;;;12.15;;
29430;SDS011;16404;49.902;10.074;2023-03-12T06:43:17;27.58;;;14.80;;
29430;SDS011;16404;49.902;10.074;2023-03-12T06:46:02;17.73;;;10.90;;
29430;SDS011;16404;49.902;10.074;2023-03-12T06:48:48;19.48;;;10.90;;
29430;SDS011;16404;49.902;10.074;2023-03-12T06:51:33;21.33;;;11.50;;
29430;SDS011;16404;49.902;10.074;2023-03-12T06:54:17;19.40;;;9.93;;
29430;SDS011;16404;49.902;10.074;2023-03-12T06:57:02;19.25;;;8.98;;
29430;SDS011;16404;49.902;10.074;2023-03-12T06:59:47;23.08;;;9.30;;
29430;SDS011;16404;49.902;10.074;2023-03-12T07:02:31;15.18;;;9.13;;
29430;SDS011;16404;49.902;10.074;2023-03-12T07:05:16;13.27;;;7.78;;
29430;SDS011;16404;49.902;10.074;2023-03-12T07:08:01;17.77;;;8.32;;
29430;SDS011;16404;49.902;10.074;2023-03-12T07:10:45;13.50;;;8.35;;
29430;SDS011;16404;49.902;10.074;2023-03-12T07:13:30;14.57;;;7.90;;
29430;SDS011;16404;49.902;10.074;2023-03-12T07:16:14;12.65;;;8.25;;
29430;SDS011;16404;49.902;10.074;2023-03-12T07:18:59;16.02;;;8.10;;
29430;SDS011;16404;49.902;10.074;2023-03-12T07:21:43;14.90;;;8.80;;
29430;SDS011;16404;49.902;10.074;2023-03-12T07:24:28;13.73;;;7.43;;
29430;SDS011;16404;49.902;10.074;2023-03-12T07:27:12;14.43;;;7.65;;
29430;SDS011;16404;49.902;10.074;2023-03-12T07:29:57;15.25;;;8.40;;
29430;SDS011;16404;49.902;10.074;2023-03-12T07:32:42;13.73;;;7.75;;
29430;SDS011;16404;49.902;10.074;2023-03-12T07:35:26;13.93;;;8.38;;
29430;SDS011;16404;49.902;10.074;2023-03-12T07:38:11;16.00;;;8.38;;
29430;SDS011;16404;49.902;10.074;2023-03-12T07:40:57;16.98;;;8.43;;
29430;SDS011;16404;49.902;10.074;2023-03-12T07:43:42;16.30;;;8.52;;
29430;SDS011;16404;49.902;10.074;2023-03-12T07:46:27;16.48;;;8.40;;
29430;SDS011;16404;49.902;10.074;2023-03-12T07:49:11;14.63;;;8.13;;
29430;SDS011;16404;49.902;10.074;2023-03-12T07:51:56;15.52;;;7.63;;
29430;SDS011;16404;49.902;10.074;2023-03-12T07:54:40;15.32;;;7.32;;
29430;SDS011;16404;49.902;10.074;2023-03-12T07:57:25;15.98;;;7.90;;
29430;SDS011;16404;49.902;10.074;2023-03-12T08:00:10;13.88;;;7.53;;
29430;SDS011;16404;49.902;10.074;2023-03-12T08:05:40;12.80;;;7.25;;
29430;SDS011;16404;49.902;10.074;2023-03-12T08:08:25;13.80;;;7.00;;
29430;SDS011;16404;49.902;10.074;2023-03-12T08:11:10;10.98;;;6.88;;
29430;SDS011;16404;49.902;10.074;2023-03-12T08:13:54;11.20;;;7.15;;
29430;SDS011;16404;49.902;10.074;2023-03-12T08:16:39;17.75;;;7.55;;
29430;SDS011;16404;49.902;10.074;2023-03-12T08:19:23;13.68;;;7.40;;
29430;SDS011;16404;49.902;10.074;2023-03-12T08:22:08;15.40;;;7.45;;
29430;SDS011;16404;49.902;10.074;2023-03-12T08:24:53;15.43;;;8.05;;
29430;SDS011;16404;49.902;10.074;2023-03-12T08:27:38;19.27;;;8.77;;
29430;SDS011;16404;49.902;10.074;2023-03-12T08:30:22;14.07;;;7.60;;
29430;SDS011;16404;49.902;10.074;2023-03-12T08:33:07;11.95;;;7.35;;
29430;SDS011;16404;49.902;10.074;2023-03-12T08:35:52;16.33;;;7.45;;
29430;SDS011;16404;49.902;10.074;2023-03-12T08:38:36;12.60;;;7.13;;
29430;SDS011;16404;49.902;10.074;2023-03-12T08:41:21;13.57;;;7.32;;
29430;SDS011;16404;49.902;10.074;2023-03-12T08:44:06;16.98;;;8.68;;
29430;SDS011;16404;49.902;10.074;2023-03-12T08:46:51;17.98;;;8.75;;
29430;SDS011;16404;49.902;10.074;2023-03-12T08:49:35;18.27;;;9.13;;
29430;SDS011;16404;49.902;10.074;2023-03-12T08:52:20;16.10;;;8.07;;
29430;SDS011;16404;49.902;10.074;2023-03-12T08:55:05;19.02;;;9.15;;
29430;SDS011;16404;49.902;10.074;2023-03-12T08:57:50;18.90;;;8.40;;
29430;SDS011;16404;49.902;10.074;2023-03-12T09:00:34;20.30;;;8.40;;
29430;SDS011;16404;49.902;10.074;2023-03-12T09:03:19;17.20;;;8.30;;
29430;SDS011;16404;49.902;10.074;2023-03-12T09:06:05;15.23;;;7.10;;
29430;SDS011;16404;49.902;10.074;2023-03-12T09:08:55;14.38;;;7.50;;
29430;SDS011;16404;49.902;10.074;2023-03-12T09:11:40;13.85;;;6.72;;
29430;SDS011;16404;49.902;10.074;2023-03-12T09:14:25;11.48;;;6.30;;
29430;SDS011;16404;49.902;10.074;2023-03-12T09:17:10;10.25;;;6.32;;
29430;SDS011;16404;49.902;10.074;2023-03-12T09:19:54;13.52;;;6.35;;
29430;SDS011;16404;49.902;10.074;2023-03-12T09:22:39;9.80;;;5.78;;
29430;SDS011;16404;49.902;10.074;2023-03-12T09:28:08;7.70;;;5.05;;
29430;SDS011;16404;49.902;10.074;2023-03-12T09:30:53;11.30;;;5.78;;
29430;SDS011;16404;49.902;10.074;2023-03-12T09:33:38;12.32;;;5.82;;
29430;SDS011;16404;49.902;10.074;2023-03-12T09:36:22;12.23;;;6.25;;
29430;SDS011;16404;49.902;10.074;2023-03-12T09:39:07;14.27;;;5.63;;
29430;SDS011;16404;49.902;10.074;2023-03-12T09:41:52;10.27;;;5.53;;
29430;SDS011;16404;49.902;10.074;2023-03-12T09:44:41;10.40;;;6.15;;
29430;SDS011;16404;49.902;10.074;2023-03-12T09:47:30;12.02;;;5.90;;
29430;SDS011;16404;49.902;10.074;2023-03-12T09:50:28;15.63;;;6.63;;
29430;SDS011;16404;49.902;10.074;2023-03-12T09:56:12;11.60;;;4.97;;
29430;SDS011;16404;49.902;10.074;2023-03-12T09:59:00;10.18;;;5.22;;
29430;SDS011;16404;49.902;10.074;2023-03-12T10:01:55;13.43;;;6.15;;
29430;SDS011;16404;49.902;10.074;2023-03-12T10:04:45;11.52;;;6.00;;
29430;SDS011;16404;49.902;10.074;2023-03-12T10:07:47;19.23;;;6.53;;
29430;SDS011;16404;49.902;10.074;2023-03-12T10:23:19;15.40;;;6.72;;
29430;SDS011;16404;49.902;10.074;2023-03-12T10:28:48;15.65;;;7.45;;
29430;SDS011;16404;49.902;10.074;2023-03-12T10:40:48;13.40;;;6.80;;
29430;SDS011;16404;49.902;10.074;2023-03-12T10:43:32;11.88;;;6.10;;
29430;SDS011;16404;49.902;10.074;2023-03-12T10:52:16;16.08;;;7.03;;
29430;SDS011;16404;49.902;10.074;2023-03-12T10:55:09;12.88;;;7.15;;
29430;SDS011;16404;49.902;10.074;2023-03-12T10:58:21;15.00;;;7.68;;
29430;SDS011;16404;49.902;10.074;2023-03-12T11:01:51;14.23;;;6.90;;
29430;SDS011;16404;49.902;10.074;2023-03-12T11:04:18;21.38;;;10.10;;
29430;SDS011;16404;49.902;10.074;2023-03-12T11:12:51;15.02;;;8.20;;
29430;SDS011;16404;49.902;10.074;2023-03-12T11:15:45;21.80;;;8.33;;
29430;SDS011;16404;49.902;10.074;2023-03-12T11:18:34;15.63;;;7.70;;
29430;SDS011;16404;49.902;10.074;2023-03-12T11:21:22;16.45;;;7.80;;
29430;SDS011;16404;49.902;10.074;2023-03-12T11:24:11;13.68;;;7.60;;
29430;SDS011;16404;49.902;10.074;2023-03-12T11:30:10;16.10;;;6.70;;
29430;SDS011;16404;49.902;10.074;2023-03-12T11:32:58;15.27;;;7.57;;
29430;SDS011;16404;49.902;10.074;2023-03-12T11:35:49;17.58;;;7.22;;
29430;SDS011;16404;49.902;10.074;2023-03-12T11:41:54;17.02;;;7.80;;
29430;SDS011;16404;49.902;10.074;2023-03-12T11:50:42;16.70;;;7.72;;
29430;SDS011;16404;49.902;10.074;2023-03-12T11:56:57;13.68;;;7.30;;
29430;SDS011;16404;49.902;10.074;2023-03-12T12:00:16;13.77;;;6.97;;
29430;SDS011;16404;49.902;10.074;2023-03-12T12:06:35;15.07;;;8.05;;
29430;SDS011;16404;49.902;10.074;2023-03-12T12:18:50;11.77;;;6.70;;
29430;SDS011;16404;49.902;10.074;2023-03-12T12:28:16;11.45;;;8.05;;
29430;SDS011;16404;49.902;10.074;2023-03-12T12:40:39;15.38;;;8.65;;
29430;SDS011;16404;49.902;10.074;2023-03-12T12:43:36;16.50;;;9.20;;
29430;SDS011;16404;49.902;10.074;2023-03-12T12:46:24;12.40;;;8.05;;
29430;SDS011;16404;49.902;10.074;2023-03-12T12:49:14;14.32;;;8.05;;
29430;SDS011;16404;49.902;10.074;2023-03-12T12:52:07;14.13;;;8.32;;
29430;SDS011;16404;49.902;10.074;2023-03-12T12:57:54;18.77;;;10.38;;
29430;SDS011;16404;49.902;10.074;2023-03-12T13:00:50;16.27;;;8.52;;
29430;SDS011;16404;49.902;10.074;2023-03-12T13:03:39;15.05;;;8.30;;
29430;SDS011;16404;49.902;10.074;2023-03-12T13:09:13;12.98;;;7.45;;
29430;SDS011;16404;49.902;10.074;2023-03-12T13:11:59;11.25;;;7.43;;
29430;SDS011;16404;49.902;10.074;2023-03-12T13:15:32;11.60;;;7.05;;
29430;SDS011;16404;49.902;10.074;2023-03-12T13:18:25;13.27;;;7.47;;
29430;SDS011;16404;49.902;10.074;2023-03-12T13:21:15;13.23;;;7.32;;
29430;SDS011;16404;49.902;10.074;2023-03-12T13:24:24;11.60;;;6.57;;
29430;SDS011;16404;49.902;10.074;2023-03-12T13:27:23;7.57;;;6.35;;
29430;SDS011;16404;49.902;10.074;2023-03-12T13:33:16;13.50;;;6.88;;
29430;SDS011;16404;49.902;10.074;2023-03-12T13:36:23;14.77;;;7.82;;
29430;SDS011;16404;49.902;10.074;2023-03-12T13:41:59;9.55;;;6.70;;
29430;SDS011;16404;49.902;10.074;2023-03-12T13:44:45;11.80;;;6.65;;
29430;SDS011;16404;49.902;10.074;2023-03-12T13:47:30;12.73;;;7.40;;
29430;SDS011;16404;49.902;10.074;2023-03-12T13:50:19;10.73;;;6.65;;
29430;SDS011;16404;49.902;10.074;2023-03-12T13:53:07;14.85;;;6.90;;
29430;SDS011;16404;49.902;10.074;2023-03-12T13:56:08;11.05;;;7.00;;
29430;SDS011;16404;49.902;10.074;2023-03-12T13:58:55;31.10;;;11.38;;
29430;SDS011;16404;49.902;10.074;2023-03-12T14:01:40;23.77;;;11.82;;
29430;SDS011;16404;49.902;10.074;2023-03-12T14:04:39;8.15;;;6.88;;
29430;SDS011;16404;49.902;10.074;2023-03-12T14:07:40;9.70;;;6.38;;
29430;SDS011;16404;49.902;10.074;2023-03-12T14:13:44;10.93;;;7.15;;
29430;SDS011;16404;49.902;10.074;2023-03-12T14:16:44;11.13;;;6.72;;
29430;SDS011;16404;49.902;10.074;2023-03-12T14:19:34;21.85;;;10.95;;
29430;SDS011;16404;49.902;10.074;2023-03-12T14:22:19;25.02;;;10.93;;
29430;SDS011;16404;49.902;10.074;2023-03-12T14:28:21;17.23;;;7.80;;
29430;SDS011;16404;49.902;10.074;2023-03-12T14:31:13;17.20;;;6.72;;
29430;SDS011;16404;49.902;10.074;2023-03-12T14:40:07;16.02;;;6.50;;
29430;SDS011;16404;49.902;10.074;2023-03-12T14:43:17;13.82;;;6.15;;
29430;SDS011;16404;49.902;10.074;2023-03-12T14:46:22;13.05;;;5.13;;
29430;SDS011;16404;49.902;10.074;2023-03-12T14:49:07;13.93;;;6.03;;
29430;SDS011;16404;49.902;10.074;2023-03-12T14:52:01;12.65;;;6.90;;
29430;SDS011;16404;49.902;10.074;2023-03-12T14:58:04;11.25;;;4.90;;
29430;SDS011;16404;49.902;10.074;2023-03-12T15:00:59;10.07;;;4.13;;
29430;SDS011;16404;49.902;10.074;2023-03-12T15:03:49;19.90;;;5.00;;
29430;SDS011;16404;49.902;10.074;2023-03-12T15:06:39;13.93;;;5.32;;
29430;SDS011;16404;49.902;10.074;2023-03-12T15:09:28;14.15;;;5.63;;
29430;SDS011;16404;49.902;10.074;2023-03-12T15:12:19;21.42;;;8.65;;
29430;SDS011;16404;49.902;10.074;2023-03-12T15:15:09;26.50;;;10.57;;
29430;SDS011;16404;49.902;10.074;2023-03-12T15:18:16;22.67;;;9.15;;
29430;SDS011;16404;49.902;10.074;2023-03-12T15:21:11;19.85;;;7.97;;
29430;SDS011;16404;49.902;10.074;2023-03-12T15:23:56;16.93;;;6.23;;
29430;SDS011;16404;49.902;10.074;2023-03-12T15:26:40;14.45;;;5.45;;
29430;SDS011;16404;49.902;10.074;2023-03-12T15:29:28;12.30;;;6.40;;
29430;SDS011;16404;49.902;10.074;2023-03-12T15:32:14;18.25;;;5.65;;
29430;SDS011;16404;49.902;10.074;2023-03-12T15:35:10;20.52;;;8.55;;
29430;SDS011;16404;49.902;10.074;2023-03-12T15:37:56;21.05;;;8.70;;
29430;SDS011;16404;49.902;10.074;2023-03-12T15:40:46;17.17;;;6.80;;
29430;SDS011;16404;49.902;10.074;2023-03-12T15:43:32;14.40;;;5.90;;
29430;SDS011;16404;49.902;10.074;2023-03-12T15:46:16;18.25;;;7.07;;
29430;SDS011;16404;49.902;10.074;2023-03-12T15:49:01;20.05;;;6.93;;
29430;SDS011;16404;49.902;10.074;2023-03-12T15:57:53;13.48;;;5.00;;
29430;SDS011;16404;49.902;10.074;2023-03-12T16:00:40;10.93;;;4.53;;
29430;SDS011;16404;49.902;10.074;2023-03-12T16:03:26;11.52;;;4.63;;
29430;SDS011;16404;49.902;10.074;2023-03-12T16:06:11;14.02;;;4.90;;
29430;SDS011;16404;49.902;10.074;2023-03-12T16:08:58;14.23;;;5.03;;
29430;SDS011;16404;49.902;10.074;2023-03-12T16:11:46;14.75;;;6.15;;
29430;SDS011;16404;49.902;10.074;2023-03-12T16:14:32;18.90;;;6.97;;
29430;SDS011;16404;49.902;10.074;2023-03-12T16:17:19;15.43;;;6.60;;
29430;SDS011;16404;49.902;10.074;2023-03-12T16:20:05;15.68;;;6.25;;
29430;SDS011;16404;49.902;10.074;2023-03-12T16:22:53;15.63;;;7.47;;
29430;SDS011;16404;49.902;10.074;2023-03-12T16:25:37;15.57;;;7.38;;
29430;SDS011;16404;49.902;10.074;2023-03-12T16:28:25;15.45;;;7.07;;
29430;SDS011;16404;49.902;10.074;2023-03-12T16:31:10;16.42;;;6.97;;
29430;SDS011;16404;49.902;10.074;2023-03-12T16:33:59;11.73;;;5.90;;
29430;SDS011;16404;49.902;10.074;2023-03-12T16:36:43;14.30;;;5.45;;
29430;SDS011;16404;49.902;10.074;2023-03-12T16:39:28;12.05;;;5.55;;
29430;SDS011;16404;49.902;10.074;2023-03-12T16:42:16;15.38;;;5.82;;
29430;SDS011;16404;49.902;10.074;2023-03-12T16:45:02;17.35;;;5.75;;
29430;SDS011;16404;49.902;10.074;2023-03-12T16:47:51;20.38;;;7.43;;
29430;SDS011;16404;49.902;10.074;2023-03-12T16:50:38;18.58;;;7.50;;
29430;SDS011;16404;49.902;10.074;2023-03-12T16:53:22;20.10;;;7.10;;
29430;SDS011;16404;49.902;10.074;2023-03-12T16:56:18;19.33;;;6.88;;
29430;SDS011;16404;49.902;10.074;2023-03-12T16:59:06;15.40;;;6.45;;
29430;SDS011;16404;49.902;10.074;2023-03-12T17:01:55;19.20;;;6.63;;
29430;SDS011;16404;49.902;10.074;2023-03-12T17:04:40;15.43;;;7.30;;
29430;SDS011;16404;49.902;10.074;2023-03-12T17:07:25;20.73;;;8.50;;
29430;SDS011;16404;49.902;10.074;2023-03-12T17:10:09;21.95;;;8.20;;
29430;SDS011;16404;49.902;10.074;2023-03-12T17:12:57;21.95;;;8.98;;
29430;SDS011;16404;49.902;10.074;2023-03-12T17:15:42;14.45;;;8.23;;
29430;SDS011;16404;49.902;10.074;2023-03-12T17:18:26;16.58;;;8.50;;
29430;SDS011;16404;49.902;10.074;2023-03-12T17:21:12;17.27;;;8.10;;
29430;SDS011;16404;49.902;10.074;2023-03-12T17:23:57;15.52;;;8.10;;
29430;SDS011;16404;49.902;10.074;2023-03-12T17:26:42;16.25;;;7.85;;
29430;SDS011;16404;49.902;10.074;2023-03-12T17:29:28;19.67;;;9.00;;
29430;SDS011;16404;49.902;10.074;2023-03-12T17:32:12;28.20;;;12.63;;
29430;SDS011;16404;49.902;10.074;2023-03-12T17:34:57;20.65;;;10.57;;
29430;SDS011;16404;49.902;10.074;2023-03-12T17:37:46;22.30;;;9.43;;
29430;SDS011;16404;49.902;10.074;2023-03-12T17:40:31;42.33;;;18.27;;
29430;SDS011;16404;49.902;10.074;2023-03-12T17:43:16;39.67;;;18.02;;
29430;SDS011;16404;49.902;10.074;2023-03-12T17:46:04;22.58;;;9.02;;
29430;SDS011;16404;49.902;10.074;2023-03-12T17:48:50;19.65;;;7.50;;
29430;SDS011;16404;49.902;10.074;2023-03-12T17:51:34;24.52;;;8.57;;
29430;SDS011;16404;49.902;10.074;2023-03-12T17:54:19;27.50;;;8.63;;
29430;SDS011;16404;49.902;10.074;2023-03-12T17:57:05;20.02;;;7.45;;
29430;SDS011;16404;49.902;10.074;2023-03-12T17:59:50;23.88;;;8.10;;
29430;SDS011;16404;49.902;10.074;2023-03-12T18:02:34;26.25;;;8.85;;
29430;SDS011;16404;49.902;10.074;2023-03-12T18:05:19;25.25;;;12.10;;
29430;SDS011;16404;49.902;10.074;2023-03-12T18:08:04;35.42;;;13.88;;
29430;SDS011;16404;49.902;10.074;2023-03-12T18:10:49;28.58;;;10.93;;
29430;SDS011;16404;49.902;10.074;2023-03-12T18:13:33;26.15;;;11.45;;
29430;SDS011;16404;49.902;10.074;2023-03-12T18:16:18;31.65;;;12.27;;
29430;SDS011;16404;49.902;10.074;2023-03-12T18:19:03;26.35;;;9.73;;
29430;SDS011;16404;49.902;10.074;2023-03-12T18:21:48;23.08;;;8.07;;
29430;SDS011;16404;49.902;10.074;2023-03-12T18:24:32;24.27;;;7.53;;
29430;SDS011;16404;49.902;10.074;2023-03-12T18:30:02;28.98;;;8.82;;
29430;SDS011;16404;49.902;10.074;2023-03-12T18:32:46;38.92;;;15.60;;
29430;SDS011;16404;49.902;10.074;2023-03-12T18:35:31;26.92;;;8.07;;
29430;SDS011;16404;49.902;10.074;2023-03-12T18:38:16;26.05;;;7.85;;
29430;SDS011;16404;49.902;10.074;2023-03-12T18:41:04;20.20;;;7.82;;
29430;SDS011;16404;49.902;10.074;2023-03-12T18:43:52;25.52;;;8.25;;